Time;durP1;ratioP1;P1;durP2;ratioP2;P2;SDS_P1;SDS_P2;PMS_P1;PMS_P2;Temp;Humidity;BMP_temperature;BMP_pressure;BME280_temperature;BME280_humidity;BME280_pressure;Samples;Min_cycle;Max_cycle;Signal;HPM_P1;HPM_P2
2023/11/09 00:01:26;;;;;;;5.93;2.22;;;;;;;9.17;54.08;100090.94;5004070;28;20057;-83
2023/11/09 00:03:55;;;;;;;4.97;2.45;;;;;;;9.16;54.10;100095.56;5002089;28;20342;-84
2023/11/09 00:06:24;;;;;;;5.05;2.17;;;;;;;9.18;54.13;100085.34;4994869;28;20057;-83
2023/11/09 00:08:52;;;;;;;4.22;2.05;;;;;;;9.19;53.98;100089.78;4992508;28;20056;-82
2023/11/09 00:11:20;;;;;;;3.92;2.10;;;;;;;9.19;53.74;100083.47;4985855;28;20125;-82
2023/11/09 00:13:49;;;;;;;4.20;1.95;;;;;;;9.19;54.00;100073.41;4987456;28;20141;-83
2023/11/09 00:16:17;;;;;;;3.92;2.00;;;;;;;9.20;54.15;100075.13;4985111;28;20057;-83
2023/11/09 00:18:45;;;;;;;7.00;2.22;;;;;;;9.19;54.03;100067.09;4987742;28;20533;-83
2023/11/09 00:21:17;;;;;;;5.07;2.00;;;;;;;9.18;54.37;100059.91;4988148;28;20058;-83
2023/11/09 00:23:44;;;;;;;3.72;1.92;;;;;;;9.18;53.90;100059.91;4990331;28;20065;-85
2023/11/09 00:26:14;;;;;;;3.92;1.80;;;;;;;9.22;54.07;100061.34;4987531;28;20173;-85
2023/11/09 00:28:50;;;;;;;3.92;1.77;;;;;;;9.17;54.20;100050.84;5003203;28;20050;-84
2023/11/09 00:31:19;;;;;;;2.88;1.60;;;;;;;9.19;54.15;100050.69;4988565;28;20585;-84
2023/11/09 00:33:47;;;;;;;5.07;1.88;;;;;;;9.20;54.06;100044.25;4987448;28;20728;-83
2023/11/09 00:36:15;;;;;;;2.95;1.50;;;;;;;9.20;54.00;100049.69;4990366;28;20050;-86
2023/11/09 00:38:46;;;;;;;3.22;1.60;;;;;;;9.20;53.95;100046.97;4990557;28;20529;-86
2023/11/09 00:41:15;;;;;;;2.60;1.48;;;;;;;9.19;54.00;100047.97;4987697;28;20497;-84
2023/11/09 00:43:43;;;;;;;4.13;1.45;;;;;;;9.19;54.40;100053.44;4990020;28;21275;-86
2023/11/09 00:46:11;;;;;;;2.60;1.60;;;;;;;9.20;54.05;100046.97;4985462;28;20161;-84
2023/11/09 00:48:39;;;;;;;3.30;1.40;;;;;;;9.20;53.96;100036.06;4993065;28;20062;-84
2023/11/09 00:51:07;;;;;;;3.50;1.70;;;;;;;9.20;54.30;100042.38;5007310;28;20041;-81
2023/11/09 00:53:36;;;;;;;3.55;1.33;;;;;;;9.19;54.06;100029.72;5010374;28;20052;-81
2023/11/09 00:56:06;;;;;;;4.05;1.58;;;;;;;9.20;54.38;100026.00;5004326;28;20052;-83
2023/11/09 00:58:36;;;;;;;3.75;1.50;;;;;;;9.20;54.46;100019.66;4990744;28;20058;-83
2023/11/09 01:01:04;;;;;;;6.22;1.50;;;;;;;9.19;54.23;100015.22;4986265;28;20093;-85
2023/11/09 01:03:32;;;;;;;2.92;1.35;;;;;;;9.18;54.43;100019.81;4996110;28;20069;-83
2023/11/09 01:06:05;;;;;;;3.05;1.50;;;;;;;9.18;54.35;100014.34;4993173;28;20147;-85
2023/11/09 01:08:33;;;;;;;4.35;1.65;;;;;;;9.17;54.31;100012.63;4993183;28;20049;-84
2023/11/09 01:11:05;;;;;;;2.90;1.60;;;;;;;9.16;54.74;100002.75;4988560;28;20069;-84
2023/11/09 01:13:34;;;;;;;3.75;1.60;;;;;;;9.15;54.65;99997.41;4995181;28;20050;-84
2023/11/09 01:16:04;;;;;;;3.30;1.85;;;;;;;9.18;54.83;99994.38;4996176;28;20510;-83
2023/11/09 01:18:32;;;;;;;2.72;1.60;;;;;;;9.17;54.41;99996.25;4994870;28;20049;-83
2023/11/09 01:21:00;;;;;;;3.28;1.60;;;;;;;9.17;54.41;99993.50;4995856;28;20042;-83
2023/11/09 01:23:28;;;;;;;3.38;1.52;;;;;;;9.17;54.41;99979.88;4994509;28;20054;-83
2023/11/09 01:25:56;;;;;;;2.88;1.60;;;;;;;9.18;54.90;99981.59;4994046;28;20050;-83
2023/11/09 01:28:27;;;;;;;3.28;1.48;;;;;;;9.19;54.43;99974.25;4991319;28;20050;-84
2023/11/09 01:30:55;;;;;;;3.40;1.70;;;;;;;9.19;54.80;99968.81;4992722;28;20045;-82
2023/11/09 01:33:29;;;;;;;4.00;1.60;;;;;;;9.18;54.48;99969.81;5007976;28;20046;-85
2023/11/09 01:35:57;;;;;;;3.35;2.15;;;;;;;9.18;54.93;99965.22;4995306;28;20132;-85
2023/11/09 01:38:26;;;;;;;2.83;1.58;;;;;;;9.17;54.74;99957.16;5001265;28;20046;-82
2023/11/09 01:40:59;;;;;;;2.95;1.70;;;;;;;9.19;54.78;99964.22;4978174;28;20046;-82
2023/11/09 01:43:27;;;;;;;3.60;1.73;;;;;;;9.20;54.54;99956.88;4996467;28;20050;-83
2023/11/09 01:45:55;;;;;;;4.18;1.75;;;;;;;9.20;54.97;99949.56;4994589;28;20049;-82
2023/11/09 01:48:23;;;;;;;4.00;1.90;;;;;;;9.21;54.68;99959.47;4990586;28;20065;-83
2023/11/09 01:50:53;;;;;;;3.60;1.80;;;;;;;9.24;54.61;99961.06;4999768;28;20621;-83
2023/11/09 01:53:21;;;;;;;3.65;2.00;;;;;;;9.22;54.69;99958.47;4985156;28;20051;-85
2023/11/09 01:55:50;;;;;;;6.07;1.80;;;;;;;9.23;54.66;99957.47;4989583;28;20065;-84
2023/11/09 01:58:20;;;;;;;5.43;1.90;;;;;;;9.24;55.14;99958.31;4992430;28;20090;-84
2023/11/09 02:00:50;;;;;;;4.05;1.63;;;;;;;9.25;55.09;99947.22;4990232;28;20130;-83
2023/11/09 02:03:18;;;;;;;4.43;1.73;;;;;;;9.23;55.08;99929.28;4994157;28;20115;-85
2023/11/09 02:05:49;;;;;;;4.75;1.98;;;;;;;9.23;54.85;99934.75;4992831;28;20129;-86
2023/11/09 02:08:19;;;;;;;4.45;2.10;;;;;;;9.25;54.93;99929.97;4991628;28;20046;-83
2023/11/09 02:10:47;;;;;;;3.70;2.13;;;;;;;9.23;55.25;99915.66;4990064;28;20128;-84
2023/11/09 02:13:15;;;;;;;4.90;2.30;;;;;;;9.24;55.11;99915.50;4989161;28;20509;-83
2023/11/09 02:15:44;;;;;;;3.50;1.92;;;;;;;9.25;55.11;99916.34;5002266;28;20128;-84
2023/11/09 02:18:12;;;;;;;3.58;1.92;;;;;;;9.24;55.11;99906.44;4990162;28;20429;-84
2023/11/09 02:20:41;;;;;;;3.78;1.77;;;;;;;9.24;54.97;99904.59;5009534;28;20048;-83
2023/11/09 02:23:09;;;;;;;4.60;1.73;;;;;;;9.25;54.96;99902.69;4996285;28;20050;-83
2023/11/09 02:25:40;;;;;;;3.42;1.80;;;;;;;9.27;55.26;99906.13;4997576;28;20058;-85
2023/11/09 02:28:10;;;;;;;4.57;2.00;;;;;;;9.26;54.98;99896.22;5011674;28;20050;-82
2023/11/09 02:30:38;;;;;;;4.10;1.85;;;;;;;9.23;55.52;99888.34;5012794;28;20061;-82
2023/11/09 02:33:08;;;;;;;3.80;1.70;;;;;;;9.26;54.94;99885.28;5026244;28;20130;-85
2023/11/09 02:35:37;;;;;;;4.18;1.60;;;;;;;9.26;55.06;99888.03;4996221;28;20042;-83
2023/11/09 02:38:06;;;;;;;3.78;1.60;;;;;;;9.24;55.33;99885.47;4991978;28;20056;-84
2023/11/09 02:40:33;;;;;;;4.00;1.52;;;;;;;9.27;55.23;99881.56;4994127;28;20053;-85
2023/11/09 02:43:07;;;;;;;3.63;1.65;;;;;;;9.25;55.49;99887.16;4994371;28;20088;-85
2023/11/09 02:45:35;;;;;;;3.38;1.63;;;;;;;9.29;55.08;99876.81;4991520;28;20101;-85
2023/11/09 02:48:06;;;;;;;3.35;1.70;;;;;;;9.29;55.02;99874.94;5008856;28;20051;-84
2023/11/09 02:50:33;;;;;;;3.35;1.65;;;;;;;9.28;55.41;99869.63;4982560;28;20786;-84
2023/11/09 02:53:01;;;;;;;4.28;1.70;;;;;;;9.32;55.00;99868.34;4991093;28;20119;-85
2023/11/09 02:55:29;;;;;;;3.55;1.60;;;;;;;9.30;55.65;99867.63;4993977;28;20813;-83
2023/11/09 02:57:57;;;;;;;1.95;1.20;;;;;;;9.33;55.02;99861.88;4995690;28;20161;-84
2023/11/09 03:00:27;;;;;;;3.05;1.27;;;;;;;9.34;55.51;99864.41;4995105;28;20346;-84
2023/11/09 03:02:55;;;;;;;3.90;1.38;;;;;;;9.33;55.50;99851.78;4990635;28;20046;-84
2023/11/09 03:05:26;;;;;;;3.10;1.40;;;;;;;9.32;55.18;99849.22;4988301;28;20577;-84
2023/11/09 03:07:55;;;;;;;2.47;1.35;;;;;;;9.35;55.22;99848.91;4990560;28;20116;-85
2023/11/09 03:10:23;;;;;;;2.40;1.20;;;;;;;9.36;55.62;99842.44;5005098;28;20568;-87
2023/11/09 03:12:52;;;;;;;2.20;1.30;;;;;;;9.37;55.25;99846.88;4990260;28;20058;-84
2023/11/09 03:15:22;;;;;;;2.50;1.13;;;;;;;9.38;55.35;99841.31;4992810;28;20098;-84
2023/11/09 03:17:51;;;;;;;2.30;1.20;;;;;;;9.40;55.31;99841.16;5001158;28;20514;-84
2023/11/09 03:20:23;;;;;;;2.35;1.23;;;;;;;9.37;55.10;99831.38;4999693;28;20047;-87
2023/11/09 03:22:51;;;;;;;1.38;0.98;;;;;;;9.38;55.11;99829.50;4995037;28;20042;-85
2023/11/09 03:25:21;;;;;;;2.72;1.20;;;;;;;9.40;55.52;99817.44;4988331;28;20124;-86
2023/11/09 03:27:49;;;;;;;3.03;1.20;;;;;;;9.41;55.47;99818.31;4989467;28;20061;-84
2023/11/09 03:30:18;;;;;;;3.35;1.10;;;;;;;9.40;55.29;99822.06;4992893;28;20054;-84
2023/11/09 03:32:46;;;;;;;1.90;1.10;;;;;;;9.41;55.36;99813.69;4995763;28;20046;-84
2023/11/09 03:35:17;;;;;;;2.53;1.10;;;;;;;9.44;55.36;99813.38;4978514;28;20057;-85
2023/11/09 03:37:46;;;;;;;1.77;0.90;;;;;;;9.42;55.26;99815.41;4987236;28;20053;-85
2023/11/09 03:40:14;;;;;;;2.03;0.82;;;;;;;9.43;55.31;99808.94;4993572;28;20137;-84
2023/11/09 03:42:44;;;;;;;0.80;0.55;;;;;;;9.43;55.23;99810.81;4991890;28;20068;-85
2023/11/09 03:45:12;;;;;;;1.27;0.75;;;;;;;9.44;55.34;99809.78;4995052;28;21027;-84
2023/11/09 03:47:40;;;;;;;0.98;0.63;;;;;;;9.45;55.07;99808.78;4994865;28;20045;-84
2023/11/09 03:50:11;;;;;;;1.08;0.43;;;;;;;9.47;55.45;99809.50;4995591;28;20050;-84
2023/11/09 03:52:41;;;;;;;0.73;0.40;;;;;;;9.49;55.07;99817.53;4993078;28;20053;-85
2023/11/09 03:55:11;;;;;;;0.75;0.60;;;;;;;9.47;55.27;99804.03;4995972;28;20143;-85
2023/11/09 03:57:39;;;;;;;0.32;0.30;;;;;;;9.48;54.97;99799.44;4990789;28;20141;-84
2023/11/09 04:00:11;;;;;;;1.25;0.50;;;;;;;9.50;55.27;99802.84;4988261;28;20046;-86
2023/11/09 04:02:40;;;;;;;2.15;0.43;;;;;;;9.50;54.87;99797.38;5005033;28;20506;-85
2023/11/09 04:05:11;;;;;;;1.02;0.50;;;;;;;9.51;55.01;99799.09;5008898;28;20074;-83
2023/11/09 04:07:41;;;;;;;0.52;0.30;;;;;;;9.50;55.19;99792.78;5026074;28;20066;-84
2023/11/09 04:10:11;;;;;;;0.88;0.40;;;;;;;9.53;54.62;99802.56;5011592;28;20060;-85
2023/11/09 04:12:39;;;;;;;0.60;0.40;;;;;;;9.54;54.75;99796.94;4992404;28;20050;-86
2023/11/09 04:15:09;;;;;;;1.10;0.40;;;;;;;9.55;54.67;99795.06;5017098;28;20053;-84
2023/11/09 04:17:37;;;;;;;1.05;0.57;;;;;;;9.54;54.96;99801.53;4997639;28;20050;-85
2023/11/09 04:20:08;;;;;;;0.30;0.20;;;;;;;9.56;54.78;99796.78;4999068;28;20081;-85
2023/11/09 04:22:36;;;;;;;0.47;0.40;;;;;;;9.54;54.81;99796.94;5000734;28;20053;-85
2023/11/09 04:25:07;;;;;;;0.73;0.30;;;;;;;9.57;55.31;99801.25;5009664;28;20050;-85
2023/11/09 04:27:36;;;;;;;0.75;0.50;;;;;;;9.54;54.88;99802.41;4997965;28;20137;-85
2023/11/09 04:30:09;;;;;;;0.50;0.30;;;;;;;9.58;54.85;99811.13;4995513;28;20588;-86
2023/11/09 04:32:39;;;;;;;0.57;0.40;;;;;;;9.54;55.00;99802.41;4993259;28;20137;-83
2023/11/09 04:35:08;;;;;;;1.42;0.40;;;;;;;9.57;54.50;99798.53;5001497;28;20391;-83
2023/11/09 04:37:38;;;;;;;0.77;0.40;;;;;;;9.57;54.92;99804.84;5011686;28;20054;-83
2023/11/09 04:40:14;;;;;;;1.10;0.40;;;;;;;9.59;54.58;99793.75;4996533;28;20058;-85
2023/11/09 04:42:43;;;;;;;0.85;0.20;;;;;;;9.59;54.61;99802.78;4990707;28;20045;-86
2023/11/09 04:45:12;;;;;;;0.55;0.38;;;;;;;9.60;54.54;99799.06;4993705;28;20050;-83
2023/11/09 04:47:41;;;;;;;0.30;0.30;;;;;;;9.62;54.96;99796.19;5006699;28;20403;-86
2023/11/09 04:50:14;;;;;;;1.15;0.30;;;;;;;9.61;54.40;99795.31;4993790;28;20050;-84
2023/11/09 04:52:51;;;;;;;0.30;0.20;;;;;;;9.59;54.85;99800.06;4993327;28;20498;-84
2023/11/09 04:55:31;;;;;;;0.50;0.30;;;;;;;9.64;54.95;99799.63;5002329;28;20632;-85
2023/11/09 05:09:06;;;;;;;0.30;0.20;;;;;;;9.62;54.17;99797.03;4992147;28;20167;-83
2023/11/09 05:11:35;;;;;;;0.80;0.35;;;;;;;9.64;54.36;99792.28;4990908;28;20141;-85
2023/11/09 05:14:03;;;;;;;0.45;0.20;;;;;;;9.66;54.13;99792.13;4991985;28;20128;-83
2023/11/09 05:16:31;;;;;;;0.43;0.20;;;;;;;9.67;54.44;99796.56;4993332;28;20108;-83
2023/11/09 05:19:00;;;;;;;0.55;0.30;;;;;;;9.68;54.60;99795.53;4993798;28;20117;-83
2023/11/09 05:21:28;;;;;;;0.68;0.40;;;;;;;9.69;54.55;99792.66;4991398;28;20052;-85
2023/11/09 05:23:55;;;;;;;0.65;0.40;;;;;;;9.69;54.28;99792.66;4987030;28;20413;-84
2023/11/09 05:26:25;;;;;;;0.30;0.28;;;;;;;9.69;54.67;99794.53;4997924;28;20156;-86
2023/11/09 05:28:55;;;;;;;1.20;0.40;;;;;;;9.72;54.36;99791.50;4982581;28;20160;-85
2023/11/09 05:31:23;;;;;;;0.45;0.40;;;;;;;9.71;54.01;99778.84;5003694;28;20053;-84
2023/11/09 05:33:52;;;;;;;0.85;0.40;;;;;;;9.72;54.08;99780.59;4985946;28;20054;-85
2023/11/09 05:36:21;;;;;;;1.58;0.40;;;;;;;9.72;54.59;99786.91;4987775;28;20050;-87
2023/11/09 05:38:49;;;;;;;0.40;0.30;;;;;;;9.73;54.23;99794.09;5008035;28;20326;-86
2023/11/09 05:41:18;;;;;;;0.95;0.30;;;;;;;9.71;54.19;99787.06;5003750;28;20045;-81
2023/11/09 05:43:45;;;;;;;0.60;0.40;;;;;;;9.71;54.59;99782.44;5005655;28;20046;-82
2023/11/09 05:46:15;;;;;;;0.57;0.35;;;;;;;9.74;54.69;99786.75;5004724;28;20119;-83
2023/11/09 05:48:43;;;;;;;1.13;0.40;;;;;;;9.72;54.51;99786.03;4990784;28;20129;-84
2023/11/09 05:51:10;;;;;;;1.00;0.43;;;;;;;9.67;54.54;99785.63;4997930;28;20052;-85
2023/11/09 05:53:38;;;;;;;0.50;0.40;;;;;;;9.69;54.48;99789.06;4990655;28;20046;-83
2023/11/09 05:56:07;;;;;;;2.38;0.50;;;;;;;9.66;54.45;99784.78;4991398;28;20136;-83
2023/11/09 05:58:35;;;;;;;1.05;0.30;;;;;;;9.66;54.43;99794.88;4988729;28;20077;-84
2023/11/09 06:01:03;;;;;;;0.55;0.40;;;;;;;9.64;54.43;99794.16;5003943;28;20105;-84
2023/11/09 06:03:32;;;;;;;1.25;0.50;;;;;;;9.63;54.70;99797.91;4991473;28;20062;-85
2023/11/09 06:06:01;;;;;;;1.45;0.45;;;;;;;9.60;54.62;99800.94;4990298;28;20082;-84
2023/11/09 06:08:29;;;;;;;1.08;0.40;;;;;;;9.58;54.72;99792.88;4990832;28;20052;-84
2023/11/09 06:10:57;;;;;;;1.20;0.50;;;;;;;9.57;54.48;99793.06;5006911;28;20069;-84
2023/11/09 06:13:25;;;;;;;1.40;0.47;;;;;;;9.55;54.52;99801.41;5007388;28;20061;-85
2023/11/09 06:15:54;;;;;;;0.90;0.57;;;;;;;9.55;54.86;99800.53;4992196;28;20135;-85
2023/11/09 06:18:23;;;;;;;0.98;0.60;;;;;;;9.53;54.76;99802.56;4990759;28;20490;-85
2023/11/09 06:20:55;;;;;;;1.27;0.60;;;;;;;9.53;54.69;99799.81;5002629;28;20053;-85
2023/11/09 06:23:23;;;;;;;1.30;0.57;;;;;;;9.49;54.85;99796.56;4989641;28;20042;-86
2023/11/09 06:25:53;;;;;;;1.17;0.60;;;;;;;9.48;55.31;99799.44;4986821;28;20061;-87
2023/11/09 06:28:22;;;;;;;1.35;0.47;;;;;;;9.46;55.09;99813.25;5006463;28;20060;-86
2023/11/09 06:30:50;;;;;;;1.70;0.88;;;;;;;9.47;54.75;99804.03;4992857;28;20399;-85
2023/11/09 06:33:19;;;;;;;0.60;0.55;;;;;;;9.44;54.87;99804.34;4999332;28;20125;-86
2023/11/09 06:35:48;;;;;;;1.45;0.68;;;;;;;9.44;55.02;99812.53;4996389;28;20130;-84
2023/11/09 06:38:19;;;;;;;1.95;0.80;;;;;;;9.41;54.89;99813.69;4987147;28;20050;-84
2023/11/09 06:43:30;;;;;;;2.00;0.80;;;;;;;9.37;55.43;99814.97;4984950;28;20053;-85
2023/11/09 06:45:58;;;;;;;1.00;0.70;;;;;;;9.38;55.17;99822.19;4978478;28;20117;-86
2023/11/09 06:48:28;;;;;;;2.45;0.90;;;;;;;9.38;55.25;99808.53;4969088;28;20731;-85
2023/11/09 06:50:56;;;;;;;1.23;0.95;;;;;;;9.36;55.30;99820.59;4975244;28;20054;-86
2023/11/09 06:53:28;;;;;;;1.30;0.80;;;;;;;9.38;55.69;99833.13;4975077;28;20129;-85
2023/11/09 06:55:56;;;;;;;1.27;0.75;;;;;;;9.35;55.13;99832.50;4968159;28;20105;-84
2023/11/09 06:58:24;;;;;;;2.22;0.95;;;;;;;9.34;55.44;99836.25;4976470;28;20057;-84
2023/11/09 07:00:52;;;;;;;2.17;1.10;;;;;;;9.32;55.56;99830.97;4985554;28;20061;-85
2023/11/09 07:03:22;;;;;;;1.75;0.88;;;;;;;9.34;55.77;99828.06;4986465;28;20300;-85
2023/11/09 07:05:50;;;;;;;1.80;1.00;;;;;;;9.32;55.52;99830.97;4988969;28;20042;-84
2023/11/09 07:08:21;;;;;;;1.88;0.90;;;;;;;9.33;55.72;99829.09;5004643;28;20045;-85
2023/11/09 07:10:58;;;;;;;2.17;1.25;;;;;;;9.30;56.10;99818.47;4988271;28;20046;-89
2023/11/09 07:13:46;;;;;;;1.75;0.93;;;;;;;9.30;55.48;99829.38;4990308;28;20478;-88
2023/11/09 07:16:15;;;;;;;1.90;0.90;;;;;;;9.28;55.56;99840.47;4997661;28;20078;-88
2023/11/09 07:18:45;;;;;;;1.98;0.90;;;;;;;9.29;55.56;99849.50;5031016;28;20094;-87
2023/11/09 07:21:14;;;;;;;1.85;0.98;;;;;;;9.28;55.38;99848.66;5017145;28;20465;-88
2023/11/09 07:23:42;;;;;;;1.52;0.90;;;;;;;9.28;55.51;99847.78;4998148;28;20133;-87
2023/11/09 07:26:13;;;;;;;1.33;1.00;;;;;;;9.30;56.10;99848.50;4998648;28;20050;-87
2023/11/09 07:28:42;;;;;;;1.77;1.10;;;;;;;9.28;56.04;99848.66;4989585;28;20043;-87
2023/11/09 07:38:56;;;;;;;1.77;1.05;;;;;;;9.19;55.97;99856.88;4941473;28;20082;-84
2023/11/09 07:41:30;;;;;;;1.52;1.00;;;;;;;9.24;56.21;99860.03;4956768;28;20043;-85
2023/11/09 07:43:59;;;;;;;1.77;1.00;;;;;;;9.22;55.81;99853.84;4969721;28;20042;-88
2023/11/09 07:46:33;;;;;;;1.70;0.90;;;;;;;9.26;56.08;99858.00;5006551;28;20054;-87
2023/11/09 07:49:11;;;;;;;2.08;0.90;;;;;;;9.26;56.31;99858.84;4989912;28;20582;-88
2023/11/09 07:51:40;;;;;;;1.40;0.80;;;;;;;9.23;56.16;99853.72;5013084;28;20042;-87
2023/11/09 07:54:09;;;;;;;1.45;0.70;;;;;;;9.28;56.16;99864.16;4995703;28;20072;-86
2023/11/09 07:56:38;;;;;;;2.88;1.20;;;;;;;9.29;55.96;99864.03;4998624;28;20585;-87
2023/11/09 07:59:07;;;;;;;1.95;0.70;;;;;;;9.26;55.91;99860.72;4995818;28;20061;-88
2023/11/09 08:01:38;;;;;;;1.75;0.90;;;;;;;9.25;55.94;99859.84;4995194;28;20337;-86
2023/11/09 08:04:08;;;;;;;1.65;0.63;;;;;;;9.27;56.19;99863.31;4992002;28;20054;-87
2023/11/09 08:06:51;;;;;;;;;;;;;;;;;;;;;
2023/11/09 08:09:38;;;;;;;;;;;;;;;;;;;;;
2023/11/09 08:12:11;;;;;;;2.13;0.90;;;;;;;9.28;56.59;99889.59;5005716;28;20057;-90
2023/11/09 08:34:01;;;;;;;2.95;1.10;;;;;;;9.24;56.61;99896.38;4811061;29;20060;-87
2023/11/09 08:36:29;;;;;;;1.73;0.70;;;;;;;9.28;56.29;99900.53;4960940;28;20204;-86
2023/11/09 08:39:02;;;;;;;2.10;0.95;;;;;;;9.30;56.26;99886.72;4987298;28;20049;-86
2023/11/09 08:41:31;;;;;;;3.78;1.20;;;;;;;9.32;56.55;99901.09;4970124;28;20046;-87
2023/11/09 08:43:59;;;;;;;2.25;1.02;;;;;;;9.32;56.28;99893.78;4982188;28;20539;-86
2023/11/09 08:46:30;;;;;;;3.08;1.20;;;;;;;9.36;56.38;99897.91;4994293;28;20129;-87
2023/11/09 08:48:59;;;;;;;2.85;1.10;;;;;;;9.33;56.15;99883.72;4990171;28;20153;-87
2023/11/09 08:51:27;;;;;;;2.13;1.05;;;;;;;9.34;56.40;99880.81;4992196;28;20119;-84
2023/11/09 08:54:01;;;;;;;5.05;1.40;;;;;;;9.37;56.33;99891.44;4991384;28;20137;-86
2023/11/09 08:56:30;;;;;;;1.80;1.08;;;;;;;9.35;56.43;99888.00;4996662;28;20354;-85
2023/11/09 08:58:58;;;;;;;2.90;1.30;;;;;;;9.38;56.51;99885.00;5027224;28;20046;-85
2023/11/09 09:01:28;;;;;;;3.22;1.10;;;;;;;9.39;56.09;99884.00;5025877;28;20118;-86
2023/11/09 09:03:59;;;;;;;2.17;1.13;;;;;;;9.40;56.45;99872.06;4990956;28;20505;-85
2023/11/09 09:06:31;;;;;;;2.53;1.13;;;;;;;9.39;56.26;99881.25;4988238;28;20050;-85
2023/11/09 09:08:59;;;;;;;3.13;1.13;;;;;;;9.41;56.47;99881.94;4990539;28;20498;-85
2023/11/09 09:11:30;;;;;;;3.17;1.55;;;;;;;9.42;56.15;99872.75;4986962;28;20042;-85
2023/11/09 09:13:59;;;;;;;3.47;1.30;;;;;;;9.44;56.36;99876.19;4984072;28;20686;-85
2023/11/09 09:16:29;;;;;;;2.03;1.00;;;;;;;9.46;56.27;99878.78;4985634;28;20062;-85
2023/11/09 09:19:20;;;;;;;2.67;1.30;;;;;;;9.50;56.85;99882.91;4985996;28;20047;-89
2023/11/09 09:21:51;;;;;;;3.22;1.27;;;;;;;9.46;55.85;99879.66;4991127;28;20055;-86
2023/11/09 09:24:19;;;;;;;2.58;1.10;;;;;;;9.50;56.30;99879.31;5002723;28;20227;-87
2023/11/09 09:26:47;;;;;;;2.53;1.10;;;;;;;9.52;56.36;99872.72;5017461;28;20046;-87
2023/11/09 09:29:16;;;;;;;3.20;1.20;;;;;;;9.53;56.09;99868.97;5000137;28;20046;-88
2023/11/09 09:31:44;;;;;;;3.83;1.65;;;;;;;9.54;56.21;99870.69;4991008;28;20034;-87
2023/11/09 09:38:32;;;;;;;3.78;1.35;;;;;;;9.53;56.63;99885.34;4990011;28;20911;-87
2023/11/09 09:41:29;;;;;;;2.67;1.10;;;;;;;9.57;56.28;99875.88;4994970;28;20160;-86
2023/11/09 09:44:00;;;;;;;3.42;1.27;;;;;;;9.61;56.70;99896.38;4990452;28;20057;-87
2023/11/09 09:46:44;;;;;;;3.55;1.30;;;;;;;9.63;56.64;99891.63;4994396;28;20070;-87
2023/11/09 09:50:18;;;;;;;3.40;1.23;;;;;;;9.63;56.69;99894.38;4943623;28;20051;-88
2023/11/09 09:52:47;;;;;;;3.08;1.20;;;;;;;9.66;56.39;99898.69;4993150;28;20061;-87
2023/11/09 09:55:18;;;;;;;2.58;1.25;;;;;;;9.73;56.41;99891.59;4993722;28;20752;-86
2023/11/09 09:57:47;;;;;;;3.60;1.42;;;;;;;9.75;56.03;99900.47;4979866;28;20047;-88
2023/11/09 10:00:24;;;;;;;3.72;1.20;;;;;;;9.78;56.37;99897.44;4972736;28;20059;-86
2023/11/09 10:02:54;;;;;;;3.17;1.30;;;;;;;9.79;55.75;99905.50;4989918;28;20046;-87
2023/11/09 10:05:37;;;;;;;3.75;1.25;;;;;;;9.83;56.09;99895.97;4990260;28;20046;-86
2023/11/09 10:20:56;;;;;;;3.78;1.00;;;;;;;9.79;56.04;99890.97;4896896;29;20125;-85
2023/11/09 10:23:27;;;;;;;4.38;1.35;;;;;;;9.81;55.75;99889.81;4944026;28;20131;-85
2023/11/09 10:25:56;;;;;;;2.97;1.25;;;;;;;9.84;55.52;99885.91;4986171;28;20037;-85
2023/11/09 10:28:28;;;;;;;5.43;1.40;;;;;;;9.88;55.31;99892.78;4992546;28;20058;-87
2023/11/09 10:30:57;;;;;;;3.40;1.40;;;;;;;9.88;55.78;99889.19;4984923;28;20057;-81
2023/11/09 10:33:26;;;;;;;2.90;1.27;;;;;;;9.89;55.70;99878.13;4958287;28;20621;-82
2023/11/09 10:35:56;;;;;;;2.53;1.15;;;;;;;9.95;55.44;99880.22;4956362;28;20609;-84
2023/11/09 10:38:25;;;;;;;3.25;1.70;;;;;;;9.96;55.58;99876.47;4988704;28;20054;-82
2023/11/09 10:40:57;;;;;;;3.50;1.50;;;;;;;9.98;55.35;99866.25;5013446;28;20065;-81
2023/11/09 10:43:49;;;;;;;2.72;1.20;;;;;;;10.00;55.09;99877.00;4995109;28;20074;-82
2023/11/09 10:46:19;;;;;;;4.13;1.50;;;;;;;10.01;55.43;99870.53;4979720;28;20050;-81
2023/11/09 10:48:49;;;;;;;4.35;1.70;;;;;;;10.02;55.21;99866.78;4974644;28;20050;-82
2023/11/09 10:51:21;;;;;;;4.00;1.30;;;;;;;10.02;54.91;99870.38;4970824;28;20088;-82
2023/11/09 10:53:49;;;;;;;4.00;1.40;;;;;;;10.07;54.60;99875.41;4976103;28;20163;-81
2023/11/09 10:56:17;;;;;;;4.55;1.33;;;;;;;10.08;54.81;99874.38;4993021;28;20054;-80
2023/11/09 10:58:45;;;;;;;4.97;1.40;;;;;;;10.09;54.89;99862.41;4982207;28;20437;-80
2023/11/09 11:01:20;;;;;;;5.05;1.42;;;;;;;10.11;54.59;99864.00;4972871;28;20058;-81
2023/11/09 11:15:01;;;;;;;3.50;1.30;;;;;;;10.05;54.34;99869.22;4916746;28;20066;-82
2023/11/09 11:17:41;;;;;;;4.35;1.40;;;;;;;10.07;54.29;99859.84;4970298;28;20058;-82
2023/11/09 11:20:33;;;;;;;3.40;1.30;;;;;;;10.11;54.28;99857.66;4981544;28;20054;-83
2023/11/09 11:27:08;;;;;;;5.38;1.58;;;;;;;10.10;54.73;99856.81;5002915;28;20092;-85
2023/11/09 11:52:42;;;;;;;4.72;1.15;;;;;;;9.99;54.04;99845.25;4885183;29;20698;-85
2023/11/09 11:55:18;;;;;;;5.38;1.50;;;;;;;10.02;54.33;99850.38;4901780;29;20047;-86
2023/11/09 11:58:04;;;;;;;4.20;1.38;;;;;;;10.07;53.41;99845.34;5009147;28;20080;-86
2023/11/09 12:00:40;;;;;;;4.85;1.50;;;;;;;10.10;54.04;99847.75;5011849;28;20109;-85
2023/11/09 12:03:09;;;;;;;5.82;1.27;;;;;;;10.12;54.14;99849.31;5031201;28;20061;-84
2023/11/09 12:05:40;;;;;;;5.72;1.60;;;;;;;10.13;53.98;99851.03;4997888;28;20057;-85
2023/11/09 12:08:35;;;;;;;4.57;1.58;;;;;;;10.16;53.69;99838.91;4995578;28;20041;-87
2023/11/09 12:11:12;;;;;;;5.78;1.52;;;;;;;10.19;53.39;99844.94;4993081;28;20069;-86
2023/11/09 12:13:41;;;;;;;5.10;1.92;;;;;;;10.21;53.97;99840.19;4995291;28;20041;-86
2023/11/09 12:16:10;;;;;;;4.78;1.48;;;;;;;10.23;53.56;99838.13;5004763;28;20456;-86
2023/11/09 12:18:39;;;;;;;4.93;1.60;;;;;;;10.24;53.54;99834.38;5025149;28;20041;-87
2023/11/09 12:21:07;;;;;;;4.63;1.63;;;;;;;10.29;53.20;99830.31;5006242;28;20054;-86
2023/11/09 12:24:03;;;;;;;4.65;1.52;;;;;;;10.29;52.73;99839.38;5004402;28;20057;-86
2023/11/09 12:26:32;;;;;;;4.90;1.52;;;;;;;10.29;53.28;99813.91;5025563;28;20070;-86
2023/11/09 12:29:01;;;;;;;5.47;1.75;;;;;;;10.34;53.31;99815.16;5024739;28;20072;-86
2023/11/09 12:31:29;;;;;;;5.75;1.50;;;;;;;10.36;53.07;99824.06;5007721;28;20058;-87
2023/11/09 12:34:04;;;;;;;4.70;1.70;;;;;;;10.38;52.15;99812.97;5007464;28;20139;-86
2023/11/09 12:36:34;;;;;;;4.53;1.48;;;;;;;10.40;52.49;99810.94;5001722;28;20054;-85
2023/11/09 12:39:15;;;;;;;3.90;1.33;;;;;;;10.42;52.35;99811.63;4994743;28;20184;-86
2023/11/09 12:41:43;;;;;;;5.85;1.33;;;;;;;10.44;52.75;99795.91;5014284;28;20165;-85
2023/11/09 12:44:12;;;;;;;4.95;1.70;;;;;;;10.45;52.21;99800.38;5011445;28;20041;-86
2023/11/09 12:46:40;;;;;;;4.65;1.48;;;;;;;10.49;52.05;99805.34;4995389;28;20038;-85
2023/11/09 12:49:10;;;;;;;5.53;1.60;;;;;;;10.52;52.00;99804.19;4992917;28;20678;-84
2023/11/09 12:51:38;;;;;;;3.90;1.15;;;;;;;10.56;52.00;99809.22;5003142;28;20054;-83
2023/11/09 12:54:08;;;;;;;4.18;1.40;;;;;;;10.58;51.64;99803.56;4991575;28;20074;-85
2023/11/09 12:56:38;;;;;;;5.22;1.42;;;;;;;10.59;51.71;99808.88;5003280;28;20107;-85
2023/11/09 12:59:12;;;;;;;5.22;1.55;;;;;;;10.62;51.75;99807.72;4995973;28;20054;-86
2023/11/09 13:01:40;;;;;;;4.50;1.60;;;;;;;10.64;51.53;99807.56;5012780;28;20049;-86
2023/11/09 13:04:21;;;;;;;4.90;1.45;;;;;;;10.66;51.59;99805.50;4998223;28;20048;-86
2023/11/09 13:06:50;;;;;;;5.97;1.60;;;;;;;10.65;51.36;99792.88;4999701;28;20050;-86
2023/11/09 13:21:33;;;;;;;3.50;1.40;;;;;;;10.68;49.46;99781.56;4930123;29;20075;-85
2023/11/09 13:28:02;;;;;;;;;;;;;;;10.44;50.91;99790.44;5019362;28;20050;-85
2023/11/09 13:31:19;;;;;;;5.47;1.30;;;;;;;10.70;50.36;99795.97;5021114;28;19936;-86
2023/11/09 13:34:18;;;;;;;4.18;1.30;;;;;;;10.72;49.66;99789.31;5018505;28;20054;-85
2023/11/09 13:36:58;;;;;;;2.70;1.30;;;;;;;10.75;50.43;99794.44;5021464;28;20038;-85
2023/11/09 13:39:50;;;;;;;5.55;1.75;;;;;;;10.74;50.43;99794.59;5019796;28;20049;-85
2023/11/09 13:42:21;;;;;;;6.00;1.50;;;;;;;10.73;50.96;99785.53;5016275;28;20045;-85
2023/11/09 13:44:51;;;;;;;4.78;1.50;;;;;;;10.78;50.27;99785.06;5021590;28;20295;-86
2023/11/09 13:47:22;;;;;;;5.20;1.25;;;;;;;10.80;50.68;99789.38;5009056;28;20054;-86
2023/11/09 13:49:55;;;;;;;4.55;1.50;;;;;;;10.80;50.23;99783.91;5000636;28;20421;-87
2023/11/09 13:52:38;;;;;;;5.03;1.40;;;;;;;10.78;50.54;99766.78;5005088;28;20056;-86